createdAt,value
2023-01-19T00:01:33.114Z,69.01
2023-01-19T00:04:00.976Z,69.11
2023-01-19T00:06:28.955Z,69.10
2023-01-19T00:08:56.777Z,69.36
2023-01-19T00:11:24.613Z,69.60
2023-01-19T00:13:53.612Z,69.51
2023-01-19T00:16:23.288Z,69.66
2023-01-19T00:18:51.972Z,69.76
2023-01-19T00:21:21.663Z,69.43
2023-01-19T00:23:52.654Z,69.48
2023-01-19T00:26:22.158Z,69.42
2023-01-19T00:28:50.668Z,69.59
2023-01-19T00:31:20.729Z,69.56
2023-01-19T00:33:49.377Z,69.50
2023-01-19T00:36:17.241Z,69.54
2023-01-19T00:38:45.061Z,69.75
2023-01-19T00:41:12.857Z,69.99
2023-01-19T00:43:41.049Z,69.68
2023-01-19T00:46:09.188Z,69.48
2023-01-19T00:48:37.017Z,69.18
2023-01-19T00:51:04.963Z,69.32
2023-01-19T00:53:32.877Z,69.64
2023-01-19T00:56:00.697Z,69.95
2023-01-19T00:58:28.542Z,70.00
2023-01-19T01:01:03.590Z,70.18
2023-01-19T01:03:32.523Z,70.19
2023-01-19T01:06:00.301Z,70.14
2023-01-19T01:08:28.351Z,70.32
2023-01-19T01:10:56.635Z,70.45
2023-01-19T01:13:27.243Z,70.09
2023-01-19T01:15:56.140Z,69.68
2023-01-19T01:18:24.947Z,69.09
2023-01-19T01:20:54.574Z,69.12
2023-01-19T01:23:23.874Z,68.84
2023-01-19T01:25:51.725Z,68.93
2023-01-19T01:28:19.533Z,68.72
2023-01-19T01:30:47.595Z,68.55
2023-01-19T01:33:15.402Z,68.74
2023-01-19T01:36:03.353Z,69.02
2023-01-19T01:38:31.095Z,68.97
2023-01-19T01:40:58.775Z,68.59
2023-01-19T01:44:04.698Z,68.18
2023-01-19T01:46:32.426Z,68.32
2023-01-19T01:49:07.297Z,68.15
2023-01-19T01:51:41.070Z,68.13
2023-01-19T01:54:22.147Z,68.48
2023-01-19T01:56:52.258Z,68.88
2023-01-19T01:59:29.837Z,69.21
2023-01-19T02:02:19.157Z,69.23
2023-01-19T02:04:50.543Z,68.44
2023-01-19T02:07:45.245Z,68.39
2023-01-19T02:10:31.806Z,67.92
2023-01-19T02:13:18.693Z,67.99
2023-01-19T02:15:52.721Z,68.48
2023-01-19T02:18:22.526Z,68.87
2023-01-19T02:21:07.608Z,68.64
2023-01-19T02:23:46.686Z,68.45
2023-01-19T02:26:18.792Z,68.60
2023-01-19T02:28:50.574Z,68.57
2023-01-19T02:31:19.423Z,68.67
2023-01-19T02:33:47.784Z,68.75
2023-01-19T02:36:16.982Z,69.06
2023-01-19T02:38:46.047Z,69.06
2023-01-19T02:41:17.234Z,69.02
2023-01-19T02:43:45.964Z,69.24
2023-01-19T02:46:15.620Z,68.75
2023-01-19T02:48:44.028Z,68.41
2023-01-19T02:51:15.510Z,68.39
2023-01-19T02:53:47.579Z,68.77
2023-01-19T02:56:46.651Z,69.22
2023-01-19T02:59:43.156Z,69.75
2023-01-19T03:02:41.261Z,70.25
2023-01-19T03:05:41.810Z,70.69
2023-01-19T03:08:24.744Z,71.03
2023-01-19T03:11:02.603Z,71.31
2023-01-19T03:13:34.507Z,71.01
2023-01-19T03:16:12.044Z,70.97
2023-01-19T03:18:42.727Z,71.37
2023-01-19T03:21:10.869Z,71.03
2023-01-19T03:23:41.770Z,71.23
2023-01-19T03:26:11.560Z,71.37
2023-01-19T03:28:40.809Z,71.63
2023-01-19T03:35:32.118Z,71.69
2023-01-19T03:38:01.183Z,71.35
2023-01-19T03:40:30.674Z,71.80
2023-01-19T03:43:00.669Z,71.69
2023-01-19T03:45:30.898Z,71.59
2023-01-19T03:47:58.925Z,71.46
2023-01-19T03:50:29.610Z,71.54
2023-01-19T03:53:12.427Z,71.80
2023-01-19T03:55:42.449Z,71.62
2023-01-19T03:58:10.794Z,72.08
2023-01-19T04:00:39.007Z,72.16
2023-01-19T04:03:10.905Z,72.45
2023-01-19T04:05:39.561Z,72.18
2023-01-19T04:08:07.633Z,72.28
2023-01-19T04:10:36.799Z,72.66
2023-01-19T04:13:04.869Z,72.82
2023-01-19T04:15:33.289Z,72.82
2023-01-19T04:18:01.259Z,72.93
2023-01-19T04:20:29.550Z,72.85
2023-01-19T04:23:01.534Z,72.63
2023-01-19T04:25:29.689Z,72.77
2023-01-19T04:28:00.130Z,72.36
2023-01-19T04:30:28.167Z,72.66
2023-01-19T04:32:56.292Z,72.64
2023-01-19T04:35:24.124Z,72.61
2023-01-19T04:37:51.884Z,72.75
2023-01-19T04:40:19.705Z,72.38
2023-01-19T04:42:47.547Z,72.62
2023-01-19T04:45:15.420Z,72.60
2023-01-19T04:47:43.239Z,72.01
2023-01-19T04:50:11.730Z,71.69
2023-01-19T04:52:39.658Z,71.49
2023-01-19T04:55:08.174Z,71.58
2023-01-19T04:57:36.094Z,71.29
2023-01-19T05:00:06.681Z,71.32
2023-01-19T05:02:35.063Z,71.24
2023-01-19T05:05:03.633Z,71.27
2023-01-19T05:07:31.475Z,71.19
2023-01-19T05:09:59.315Z,71.42
2023-01-19T05:12:27.544Z,71.26
2023-01-19T05:14:55.283Z,71.28
2023-01-19T05:17:23.270Z,71.35
2023-01-19T05:19:51.390Z,71.43
2023-01-19T05:22:19.164Z,71.38
2023-01-19T05:24:46.919Z,71.77
2023-01-19T05:27:14.730Z,71.70
2023-01-19T05:29:42.479Z,71.58
2023-01-19T05:32:10.360Z,70.66
2023-01-19T05:34:38.250Z,70.13
2023-01-19T05:37:06.070Z,70.50
2023-01-19T05:39:34.133Z,70.43
2023-01-19T05:42:01.925Z,70.70
2023-01-19T05:44:29.746Z,70.60
2023-01-19T05:46:57.725Z,70.39
2023-01-19T05:49:25.726Z,69.97
2023-01-19T05:51:53.563Z,69.81
2023-01-19T05:54:21.607Z,69.72
2023-01-19T05:56:49.346Z,69.56
2023-01-19T05:59:23.923Z,69.32
2023-01-19T06:01:52.509Z,69.70
2023-01-19T06:04:20.437Z,70.39
2023-01-19T06:06:49.182Z,70.82
2023-01-19T06:09:17.788Z,71.20
2023-01-19T06:11:46.199Z,71.39
2023-01-19T06:14:14.020Z,71.58
2023-01-19T06:16:42.061Z,71.07
2023-01-19T06:19:09.931Z,71.16
2023-01-19T06:21:37.768Z,71.12
2023-01-19T06:24:05.960Z,71.29
2023-01-19T06:26:33.715Z,71.48
2023-01-19T06:29:01.571Z,71.38
2023-01-19T06:31:29.369Z,71.33
2023-01-19T06:33:57.246Z,70.99
2023-01-19T06:36:25.241Z,70.53
2023-01-19T06:38:52.988Z,70.65
2023-01-19T06:41:20.801Z,70.73
2023-01-19T06:43:48.673Z,70.68
2023-01-19T06:46:16.531Z,70.55
2023-01-19T06:48:44.309Z,70.38
2023-01-19T06:51:12.286Z,70.47
2023-01-19T06:53:40.059Z,70.26
2023-01-19T06:56:09.685Z,70.20
2023-01-19T06:58:37.925Z,70.29
2023-01-19T07:01:06.895Z,70.12
2023-01-19T07:03:35.954Z,69.75
2023-01-19T07:06:06.607Z,69.71
2023-01-19T07:08:38.256Z,69.66
2023-01-19T07:11:22.167Z,69.93
2023-01-19T07:13:55.757Z,70.02
2023-01-19T07:16:24.232Z,69.97
2023-01-19T07:18:52.099Z,69.37
2023-01-19T07:21:19.896Z,69.45
2023-01-19T07:23:51.696Z,69.60
2023-01-19T07:26:21.551Z,69.36
2023-01-19T07:28:49.739Z,69.06
2023-01-19T07:31:18.242Z,68.58
2023-01-19T07:33:46.828Z,68.30
2023-01-19T07:36:15.017Z,67.98
2023-01-19T07:38:42.836Z,68.05
2023-01-19T07:41:10.706Z,68.13
2023-01-19T07:43:38.594Z,67.59
2023-01-19T07:46:08.182Z,67.40
2023-01-19T07:48:36.286Z,67.18
2023-01-19T07:51:05.824Z,67.39
2023-01-19T07:53:33.980Z,67.45
2023-01-19T07:56:01.811Z,67.15
2023-01-19T07:58:30.032Z,67.12
2023-01-19T08:00:57.974Z,66.91
2023-01-19T08:03:25.845Z,66.72
2023-01-19T08:05:54.383Z,67.14
2023-01-19T08:08:22.127Z,66.75
2023-01-19T08:10:51.007Z,66.70
2023-01-19T08:13:19.112Z,66.90
2023-01-19T08:15:51.613Z,67.09
2023-01-19T08:18:20.207Z,67.31
2023-01-19T08:20:48.247Z,66.57
2023-01-19T08:23:18.048Z,66.69
2023-01-19T08:25:46.183Z,66.60
2023-01-19T08:28:15.795Z,66.49
2023-01-19T08:30:44.926Z,66.49
2023-01-19T08:33:13.746Z,65.76
2023-01-19T08:35:48.858Z,65.78
2023-01-19T08:38:17.128Z,65.74
2023-01-19T08:40:46.317Z,65.63
2023-01-19T08:43:15.967Z,65.59
2023-01-19T08:45:48.782Z,65.14
2023-01-19T08:48:18.105Z,64.77
2023-01-19T08:50:46.783Z,64.43
2023-01-19T08:53:15.473Z,63.49
2023-01-19T08:55:43.346Z,62.77
2023-01-19T08:58:11.114Z,62.42
2023-01-19T14:02:39.950Z,35.29
2023-01-19T14:05:25.566Z,36.11
2023-01-19T14:08:04.100Z,36.11
2023-01-19T14:10:32.898Z,36.27
2023-01-19T14:13:02.804Z,36.41
2023-01-19T14:15:33.415Z,36.85
2023-01-19T14:18:09.637Z,37.16
2023-01-19T14:20:37.769Z,37.48
2023-01-19T14:23:07.249Z,38.11
2023-01-19T14:25:36.523Z,38.62
2023-01-19T14:28:27.734Z,38.86
2023-01-19T14:30:55.528Z,39.20
2023-01-19T14:33:33.623Z,39.59
2023-01-19T14:36:34.863Z,39.57
2023-01-19T14:39:03.640Z,39.72
2023-01-19T14:41:47.987Z,40.17
2023-01-19T14:44:20.973Z,40.42
2023-01-19T14:46:48.965Z,40.80
2023-01-19T14:49:30.283Z,40.99
2023-01-19T14:51:58.681Z,41.34
2023-01-19T14:54:38.471Z,42.02
2023-01-19T14:57:11.584Z,42.62
2023-01-19T14:59:40.173Z,43.15
2023-01-19T15:02:12.494Z,43.50
2023-01-19T15:04:40.765Z,44.01
2023-01-19T15:07:17.183Z,44.40
2023-01-19T15:09:46.691Z,44.85
2023-01-19T15:12:17.534Z,45.26
2023-01-19T15:14:46.820Z,45.93
2023-01-19T15:17:17.061Z,46.17
2023-01-19T15:19:44.833Z,46.61
2023-01-19T15:22:13.566Z,46.75
2023-01-19T15:24:42.087Z,47.11
2023-01-19T15:27:12.183Z,47.44
2023-01-19T15:29:40.506Z,47.59
2023-01-19T15:32:13.198Z,47.98
2023-01-19T15:34:42.389Z,48.45
2023-01-19T15:37:10.245Z,49.53
2023-01-19T15:39:38.151Z,48.97
2023-01-19T15:42:10.763Z,49.25
2023-01-19T15:44:38.536Z,49.72
2023-01-19T15:47:06.279Z,49.85
2023-01-19T15:49:34.096Z,50.36
2023-01-19T15:52:01.896Z,50.67
2023-01-19T15:54:29.769Z,50.66
2023-01-19T15:56:57.762Z,51.09
2023-01-19T15:59:26.179Z,51.46
2023-01-19T16:01:54.246Z,51.96
2023-01-19T16:04:22.175Z,51.95
2023-01-19T16:06:50.252Z,52.02
2023-01-19T16:09:20.025Z,52.11
2023-01-19T16:11:47.837Z,52.28
2023-01-19T16:14:17.496Z,52.44
2023-01-19T16:16:48.739Z,52.52
2023-01-19T16:19:16.573Z,52.70
2023-01-19T16:21:44.284Z,52.97
2023-01-19T16:24:12.101Z,53.13
2023-01-19T16:26:39.876Z,53.18
2023-01-19T16:29:09.795Z,53.12
2023-01-19T16:31:38.675Z,53.36
2023-01-19T16:34:06.992Z,53.70
2023-01-19T16:36:36.630Z,54.18
2023-01-19T16:39:07.072Z,54.45
2023-01-19T16:41:35.619Z,54.83
2023-01-19T16:44:04.008Z,55.27
2023-01-19T16:46:38.211Z,55.43
2023-01-19T16:49:11.318Z,55.49
2023-01-19T16:51:39.446Z,55.70
2023-01-19T16:54:07.790Z,55.28
2023-01-19T16:56:35.660Z,55.14
2023-01-19T16:59:03.633Z,55.27
2023-01-19T17:01:31.727Z,55.44
2023-01-19T17:03:59.907Z,55.70
2023-01-19T17:06:29.553Z,55.95
2023-01-19T17:08:57.796Z,56.39
2023-01-19T17:11:28.451Z,56.71
2023-01-19T17:14:01.711Z,56.76
2023-01-19T17:16:31.263Z,56.77
2023-01-19T17:19:00.562Z,56.66
2023-01-19T17:21:29.268Z,56.48
2023-01-19T17:23:57.967Z,56.45
2023-01-19T17:26:28.444Z,56.51
2023-01-19T17:29:05.311Z,56.86
2023-01-19T17:31:34.128Z,57.05
2023-01-19T17:34:03.422Z,57.52
2023-01-19T17:36:32.652Z,57.50
2023-01-19T17:39:04.566Z,57.65
2023-01-19T17:41:35.158Z,57.45
2023-01-19T17:44:05.221Z,57.30
2023-01-19T17:46:36.418Z,57.40
2023-01-19T17:49:06.301Z,57.63
2023-01-19T17:51:34.542Z,57.62
2023-01-19T17:54:04.083Z,57.49
2023-01-19T17:56:36.909Z,57.90
2023-01-19T17:59:07.610Z,58.42
2023-01-19T18:01:39.763Z,58.83
2023-01-19T18:04:08.123Z,59.25
2023-01-19T18:06:37.113Z,59.22
2023-01-19T18:09:07.371Z,59.15
2023-01-19T18:11:35.486Z,59.00
2023-01-19T18:14:03.633Z,58.84
2023-01-19T18:16:32.567Z,58.72
2023-01-19T18:19:00.875Z,58.76
2023-01-19T18:21:30.393Z,59.19
2023-01-19T18:24:01.179Z,59.03
2023-01-19T18:26:30.469Z,59.01
2023-01-19T18:28:58.959Z,58.92
2023-01-19T18:31:27.375Z,58.92
2023-01-19T18:33:55.247Z,58.73
2023-01-19T18:36:23.390Z,58.62
2023-01-19T18:38:51.569Z,58.66
2023-01-19T18:41:21.295Z,58.41
2023-01-19T18:43:49.605Z,58.33
2023-01-19T18:46:18.968Z,58.25
2023-01-19T18:48:47.010Z,58.45
2023-01-19T18:51:16.144Z,58.81
2023-01-19T18:53:45.382Z,58.87
2023-01-19T18:56:15.801Z,58.91
2023-01-19T18:58:44.794Z,58.86
2023-01-19T19:01:18.449Z,58.99
2023-01-19T19:03:46.320Z,58.99
2023-01-19T19:06:19.031Z,58.98
2023-01-19T19:08:48.668Z,58.90
2023-01-19T19:11:17.347Z,58.76
2023-01-19T19:13:45.767Z,58.93
2023-01-19T19:16:14.691Z,58.56
2023-01-19T19:18:42.915Z,58.73
2023-01-19T19:21:12.103Z,58.92
2023-01-19T19:23:39.948Z,58.98
2023-01-19T19:26:10.059Z,59.07
2023-01-19T19:28:39.422Z,59.14
2023-01-19T19:31:12.775Z,58.93
2023-01-19T19:33:43.391Z,58.92
2023-01-19T19:36:12.486Z,59.34
2023-01-19T19:38:42.752Z,59.20
2023-01-19T19:41:16.773Z,59.21
2023-01-19T19:43:44.544Z,59.17
2023-01-19T19:46:13.917Z,58.94
2023-01-19T19:48:41.995Z,58.91
2023-01-19T19:51:19.092Z,58.66
2023-01-19T19:53:51.030Z,58.52
2023-01-19T19:56:21.674Z,58.75
2023-01-19T19:58:51.706Z,58.95
2023-01-19T20:01:22.581Z,58.82
2023-01-19T20:03:51.454Z,58.84
2023-01-19T20:06:22.798Z,58.86
2023-01-19T20:08:55.119Z,58.62
2023-01-19T20:11:26.860Z,58.51
2023-01-19T20:13:55.026Z,58.67
2023-01-19T20:16:23.884Z,58.89
2023-01-19T20:18:55.639Z,58.80
2023-01-19T20:21:26.058Z,58.93
2023-01-19T20:23:55.578Z,58.91
2023-01-19T20:26:26.673Z,58.76
2023-01-19T20:28:59.766Z,58.76
2023-01-19T20:31:30.459Z,58.89
2023-01-19T20:34:00.454Z,59.07
2023-01-19T20:36:28.888Z,58.71
2023-01-19T20:38:57.624Z,58.97
2023-01-19T20:41:25.989Z,59.48
2023-01-19T20:43:54.306Z,59.58
2023-01-19T20:46:22.085Z,59.45
2023-01-19T20:48:52.993Z,59.37
2023-01-19T20:51:21.019Z,59.41
2023-01-19T20:53:48.996Z,59.05
2023-01-19T20:56:18.432Z,59.34
2023-01-19T20:58:46.307Z,59.16
2023-01-19T21:01:20.518Z,59.26
2023-01-19T21:03:49.049Z,59.21
2023-01-19T21:06:18.169Z,59.47
2023-01-19T21:08:46.465Z,59.04
2023-01-19T21:11:14.396Z,59.57
2023-01-19T21:13:42.348Z,59.58
2023-01-19T21:16:10.336Z,59.62
2023-01-19T21:18:38.330Z,59.76
2023-01-19T21:21:07.099Z,59.59
2023-01-19T21:23:37.103Z,59.95
2023-01-19T21:26:05.090Z,59.66
2023-01-19T21:28:33.321Z,60.04
2023-01-19T21:31:06.823Z,60.42
2023-01-19T21:33:34.884Z,60.23
2023-01-19T21:36:02.679Z,60.30
2023-01-19T21:38:30.470Z,60.02
2023-01-19T21:40:58.751Z,59.86
2023-01-19T21:43:26.692Z,59.90
2023-01-19T21:45:54.671Z,59.81
2023-01-19T21:48:22.660Z,59.84
2023-01-19T21:50:57.631Z,59.87
2023-01-19T21:53:25.420Z,59.83
2023-01-19T21:55:53.381Z,59.89
2023-01-19T21:58:23.389Z,59.77
2023-01-19T22:00:51.303Z,59.78
2023-01-19T22:03:19.153Z,59.83
2023-01-19T22:05:47.106Z,59.71
2023-01-19T22:08:14.970Z,59.61
2023-01-19T22:10:42.731Z,59.46
2023-01-19T22:13:10.526Z,59.39
2023-01-19T22:15:38.387Z,59.46
2023-01-19T22:18:06.185Z,59.01
2023-01-19T22:20:34.019Z,59.26
2023-01-19T22:23:01.795Z,59.29
2023-01-19T22:25:32.635Z,59.44
2023-01-19T22:28:00.479Z,59.66
2023-01-19T22:30:28.322Z,59.64
2023-01-19T22:32:56.239Z,59.83
2023-01-19T22:35:24.030Z,60.14
2023-01-19T22:37:51.844Z,60.30
2023-01-19T22:40:20.133Z,61.17
2023-01-19T22:42:48.484Z,61.18
2023-01-19T22:45:16.430Z,61.28
2023-01-19T22:47:44.196Z,60.98
2023-01-19T22:50:12.002Z,60.75
2023-01-19T22:52:39.762Z,60.63
2023-01-19T22:55:07.993Z,60.28
2023-01-19T22:57:36.738Z,59.83
2023-01-19T23:00:06.816Z,59.51
2023-01-19T23:02:34.637Z,59.77
2023-01-19T23:05:02.748Z,59.96
2023-01-19T23:07:30.555Z,59.80
2023-01-19T23:09:58.297Z,59.77
2023-01-19T23:12:26.088Z,59.52
2023-01-19T23:14:53.908Z,59.51
2023-01-19T23:17:21.710Z,59.36
2023-01-19T23:19:49.454Z,59.21
2023-01-19T23:22:17.199Z,59.34
2023-01-19T23:24:45.060Z,59.20
2023-01-19T23:27:12.791Z,59.27
2023-01-19T23:29:40.787Z,59.37
2023-01-19T23:32:08.502Z,59.38
2023-01-19T23:34:36.256Z,59.37
2023-01-19T23:37:04.073Z,59.79
2023-01-19T23:39:31.939Z,59.82
2023-01-19T23:41:59.651Z,60.21
2023-01-19T23:44:27.430Z,60.50
2023-01-19T23:46:55.867Z,60.54
2023-01-19T23:49:24.824Z,60.25
2023-01-19T23:51:52.648Z,59.93
2023-01-19T23:54:20.413Z,60.23
2023-01-19T23:56:48.166Z,60.25
2023-01-19T23:59:16.563Z,60.10
